Princeton's Hourly Summary for Thursday, May 10, 2018
Hour Temp
(f)
RH
(%)
Solar Rad.
(MJ/m2)
Rainfall
(in)
Wind
(mph)
5/10/2018 12:00 AM 71 60 0 0 3.4
5/10/2018 1:00 AM 70 62 0 0 2.58
5/10/2018 2:00 AM 70 59 0 0 4.39
5/10/2018 3:00 AM 70 53 0 0 5.28
5/10/2018 4:00 AM 69 54 0 0 5.77
5/10/2018 5:00 AM 68 59 0 0 5.37
5/10/2018 6:00 AM 66 61 0 0 4.25
5/10/2018 7:00 AM 65 67 0.02 0 5.06
5/10/2018 8:00 AM 65 76 0.33 0 6.71
5/10/2018 9:00 AM 68 74 1.06 0 6.74
5/10/2018 10:00 AM 72 59 1.64 0 4.47
5/10/2018 11:00 AM 75 53 2.51 0 4.93
5/10/2018 12:00 PM 77 48 3.12 0 6.62
5/10/2018 1:00 PM 78 45 3.37 0 10.28
5/10/2018 2:00 PM 80 42 3.45 0 10.86
5/10/2018 3:00 PM 81 39 3.32 0 9.97
5/10/2018 4:00 PM 82 38 2.92 0 10.32
5/10/2018 5:00 PM 83 37 2.26 0 9.84
5/10/2018 6:00 PM 82 39 1.65 0 10.5
5/10/2018 7:00 PM 81 45 0.96 0 9.04
5/10/2018 8:00 PM 79 46 0.26 0 7.61
5/10/2018 9:00 PM 76 51 0.01 0 5.51
5/10/2018 10:00 PM 74 58 0 0 4.32
5/10/2018 11:00 PM 73 62 0 0 5.06
Data Summary 73 53 26.88 0.00 6.62